KHUA/HUA METAR and TAF weather

Enter ICAO airport designator
Station Type Date Time Source
KHUA METAR 2019/06/17 11:58 UTC NOAA

KHUA 171158Z AUTO 20006KT 10SM FEW140 SCT180 BKN240 23/20 A3000 RMK AO2 SLP153 T02280204 10237 20202 52017


Station Type Date Time Source
KHUA Decoded METAR 2019/06/17 11:58 UTC NOAA

Station name not available
Jun 17, 2019 - 07:58 AM EDT / 2019.06.17 1158 UTC
Wind: from the SSW (200 degrees) at 7 MPH (6 KT):0
Visibility: 10 mile(s):0
Sky conditions: mostly cloudy
Temperature: 73.0 F (22.8 C)
Dew Point: 68.7 F (20.4 C)
Relative Humidity: 86%
Pressure (altimeter): 30 in. Hg (1015 hPa)
Pressure tendency: 0.05 inches (1.7 hPa) higher than three hours ago
ob: KHUA 171158Z AUTO 20006KT 10SM FEW140 SCT180 BKN240 23/20 A3000 RMK AO2 SLP153 T02280204 10237 20202 52017
cycle: 12

Station Type Date Time Source
KHUA TAF UTC NOAA

Error!

Example: see airport list